Time;durP1;ratioP1;P1;durP2;ratioP2;P2;SDS_P1;SDS_P2;PMS_P1;PMS_P2;Temp;Humidity;BMP_temperature;BMP_pressure;BME280_temperature;BME280_humidity;BME280_pressure;Samples;Min_cycle;Max_cycle;Signal;HPM_P1;HPM_P2
2021/05/01 00:01:35;;;;;;;17.55;15.13;;;9.40;93.90;;;;;;5013425;28;20279;-83
2021/05/01 00:04:01;;;;;;;17.43;15.63;;;9.40;93.70;;;;;;5016888;28;20310;-83
2021/05/01 00:06:28;;;;;;;17.80;16.00;;;9.40;93.30;;;;;;5015600;28;20219;-84
2021/05/01 00:08:54;;;;;;;17.67;15.80;;;9.40;93.10;;;;;;5014131;28;20229;-83
2021/05/01 00:11:22;;;;;;;17.10;15.30;;;9.40;93.60;;;;;;5016077;28;20199;-84
2021/05/01 00:13:49;;;;;;;18.57;16.67;;;9.40;93.30;;;;;;5002178;28;20231;-85
2021/05/01 00:16:15;;;;;;;18.20;16.30;;;9.30;93.30;;;;;;5014443;28;20203;-83
2021/05/01 00:18:42;;;;;;;17.38;15.57;;;9.30;93.30;;;;;;5012875;28;20227;-84
2021/05/01 00:21:08;;;;;;;18.90;16.23;;;9.20;94.00;;;;;;5017474;28;20203;-83
2021/05/01 00:23:35;;;;;;;19.13;17.15;;;9.20;94.20;;;;;;5018292;28;20227;-83
2021/05/01 00:26:01;;;;;;;18.20;16.30;;;9.10;94.00;;;;;;5016645;28;20217;-83
2021/05/01 00:28:27;;;;;;;18.65;16.75;;;9.00;94.60;;;;;;5010111;28;20231;-83
2021/05/01 00:30:54;;;;;;;18.30;16.45;;;9.00;94.60;;;;;;5007921;28;20243;-83
2021/05/01 00:33:20;;;;;;;18.58;16.58;;;9.10;94.60;;;;;;5011901;28;20255;-83
2021/05/01 00:35:47;;;;;;;19.33;17.25;;;9.00;94.50;;;;;;5002789;28;20216;-84
2021/05/01 00:38:13;;;;;;;19.15;17.17;;;9.10;94.90;;;;;;5014117;28;20242;-83
2021/05/01 00:40:40;;;;;;;19.20;17.20;;;9.00;94.50;;;;;;5012489;28;20230;-83
2021/05/01 00:43:06;;;;;;;19.15;17.15;;;9.10;94.60;;;;;;5018200;28;20741;-86
2021/05/01 00:45:32;;;;;;;19.33;17.38;;;9.10;94.60;;;;;;5015501;28;20210;-88
2021/05/01 00:47:59;;;;;;;19.55;17.23;;;9.20;94.90;;;;;;5002361;28;20208;-85
2021/05/01 00:50:25;;;;;;;19.48;17.48;;;9.30;94.40;;;;;;5018499;28;20647;-83
2021/05/01 00:52:52;;;;;;;18.80;16.80;;;9.30;94.80;;;;;;5024335;28;20677;-83
2021/05/01 00:55:18;;;;;;;19.25;17.25;;;9.30;94.50;;;;;;5026406;28;20252;-85
2021/05/01 00:57:45;;;;;;;20.27;18.10;;;9.20;94.80;;;;;;5022784;28;20199;-83
2021/05/01 01:00:26;;;;;;;20.02;17.65;;;9.20;95.10;;;;;;5015141;28;20250;-86
2021/05/01 01:02:52;;;;;;;21.30;19.02;;;9.20;95.10;;;;;;5018010;28;20244;-84
2021/05/01 01:05:18;;;;;;;20.50;18.45;;;9.30;94.80;;;;;;5019910;28;20466;-86
2021/05/01 01:07:45;;;;;;;20.25;18.15;;;9.10;94.60;;;;;;5020813;28;20215;-83
2021/05/01 01:10:12;;;;;;;20.50;18.40;;;9.10;94.90;;;;;;5014993;28;20559;-83
2021/05/01 01:12:39;;;;;;;19.40;17.42;;;9.20;94.90;;;;;;5023595;28;20215;-83
2021/05/01 01:15:06;;;;;;;20.08;17.98;;;9.30;94.40;;;;;;5016883;28;20286;-83
2021/05/01 01:17:32;;;;;;;20.70;18.55;;;9.30;94.30;;;;;;5010487;28;20284;-84
2021/05/01 01:19:59;;;;;;;21.07;18.87;;;9.40;94.50;;;;;;5020499;28;20235;-83
2021/05/01 01:22:26;;;;;;;20.65;18.45;;;9.40;94.20;;;;;;5012389;28;20667;-83
2021/05/01 01:24:52;;;;;;;20.52;18.35;;;9.40;94.60;;;;;;5009292;28;20231;-84
2021/05/01 01:27:19;;;;;;;20.15;18.05;;;9.40;94.40;;;;;;5000204;28;20207;-83
2021/05/01 01:29:47;;;;;;;20.48;18.17;;;9.50;94.30;;;;;;5006497;28;20307;-85
2021/05/01 01:32:14;;;;;;;19.80;17.73;;;9.50;94.10;;;;;;5012850;28;20222;-83
2021/05/01 01:34:44;;;;;;;19.98;17.90;;;9.60;94.10;;;;;;5006264;28;20223;-83
2021/05/01 01:37:11;;;;;;;20.05;18.00;;;9.60;94.10;;;;;;5022909;28;20264;-83
2021/05/01 01:39:38;;;;;;;21.75;19.17;;;9.60;94.20;;;;;;5018132;28;20233;-85
2021/05/01 01:42:05;;;;;;;20.00;17.88;;;9.60;94.40;;;;;;5012804;28;20200;-83
2021/05/01 01:44:31;;;;;;;20.57;18.37;;;9.60;94.50;;;;;;5010971;28;20284;-83
2021/05/01 01:46:58;;;;;;;20.63;17.67;;;9.60;94.60;;;;;;5025700;28;20211;-83
2021/05/01 01:49:24;;;;;;;20.88;18.67;;;9.60;94.40;;;;;;5017387;28;20338;-82
2021/05/01 01:51:50;;;;;;;20.30;18.13;;;9.60;94.50;;;;;;5021652;28;20199;-84
2021/05/01 01:54:17;;;;;;;20.48;18.33;;;9.60;94.30;;;;;;5012050;28;20235;-83
2021/05/01 01:56:44;;;;;;;21.27;19.08;;;9.60;94.30;;;;;;5024209;28;20207;-83
2021/05/01 01:59:10;;;;;;;21.15;18.98;;;9.50;94.30;;;;;;5026410;28;20222;-88
2021/05/01 02:01:36;;;;;;;20.70;18.50;;;9.40;95.00;;;;;;5022310;28;20194;-83
2021/05/01 02:04:03;;;;;;;20.63;18.52;;;9.50;94.60;;;;;;5012389;28;20257;-83
2021/05/01 02:06:29;;;;;;;20.48;18.38;;;9.50;94.50;;;;;;5012955;28;20199;-83
2021/05/01 02:08:56;;;;;;;21.40;19.15;;;9.60;94.10;;;;;;5033097;28;20218;-83
2021/05/01 02:11:22;;;;;;;21.55;19.33;;;9.60;94.20;;;;;;5011898;28;20191;-87
2021/05/01 02:13:49;;;;;;;21.02;18.85;;;9.50;93.90;;;;;;5019797;28;20227;-87
2021/05/01 02:16:15;;;;;;;21.63;19.33;;;9.50;94.30;;;;;;5020114;28;20202;-85
2021/05/01 02:18:41;;;;;;;21.00;18.85;;;9.50;94.90;;;;;;5014885;28;20227;-84
2021/05/01 02:21:08;;;;;;;21.85;19.55;;;9.50;94.40;;;;;;5011427;28;20199;-85
2021/05/01 02:23:34;;;;;;;21.33;18.80;;;9.50;94.80;;;;;;5012106;28;20234;-85
2021/05/01 02:26:00;;;;;;;21.15;18.98;;;9.50;94.70;;;;;;5018287;28;20207;-85
2021/05/01 02:28:26;;;;;;;22.35;19.95;;;9.50;95.00;;;;;;5018109;28;20269;-87
2021/05/01 02:30:54;;;;;;;21.25;19.05;;;9.50;94.70;;;;;;5019317;28;20223;-86
2021/05/01 02:33:21;;;;;;;21.77;19.58;;;9.40;94.80;;;;;;5026465;28;20685;-85
2021/05/01 02:35:48;;;;;;;21.33;19.17;;;9.40;94.60;;;;;;5010304;28;20222;-84
2021/05/01 02:38:14;;;;;;;22.42;19.05;;;9.50;94.70;;;;;;5017006;28;20682;-86
2021/05/01 02:40:40;;;;;;;21.13;19.02;;;9.40;94.90;;;;;;5017298;28;20211;-84
2021/05/01 02:43:11;;;;;;;21.77;19.55;;;9.50;94.40;;;;;;5016250;28;20242;-83
2021/05/01 02:45:38;;;;;;;22.23;19.90;;;9.50;93.90;;;;;;5013776;28;20208;-86
2021/05/01 02:48:06;;;;;;;22.65;20.27;;;9.30;94.40;;;;;;5011118;28;20211;-84
2021/05/01 02:50:33;;;;;;;21.60;19.27;;;9.30;94.80;;;;;;5010514;28;20587;-83
2021/05/01 02:52:59;;;;;;;22.10;19.70;;;9.30;95.20;;;;;;5013787;28;20211;-84
2021/05/01 02:55:26;;;;;;;22.13;19.90;;;9.40;94.90;;;;;;5015037;28;20223;-87
2021/05/01 02:57:52;;;;;;;22.35;19.67;;;9.60;94.90;;;;;;5015028;28;20199;-84
2021/05/01 03:00:21;;;;;;;23.10;20.23;;;9.60;94.50;;;;;;5016539;28;20701;-85
2021/05/01 03:02:47;;;;;;;21.85;19.48;;;9.60;94.40;;;;;;5011095;28;20230;-84
2021/05/01 03:05:17;;;;;;;21.98;19.67;;;9.60;94.70;;;;;;5017551;28;20206;-83
2021/05/01 03:07:44;;;;;;;21.55;19.27;;;9.60;94.70;;;;;;5011890;28;20214;-84
2021/05/01 03:10:13;;;;;;;22.30;19.98;;;9.60;94.60;;;;;;5015674;28;20223;-85
2021/05/01 03:12:40;;;;;;;22.55;20.15;;;9.50;95.30;;;;;;5018134;28;20210;-84
2021/05/01 03:15:08;;;;;;;23.45;20.88;;;9.50;95.80;;;;;;5015450;28;20228;-85
2021/05/01 03:17:34;;;;;;;22.52;20.15;;;9.50;95.50;;;;;;5018321;28;20211;-84
2021/05/01 03:20:01;;;;;;;23.25;20.85;;;9.30;95.50;;;;;;5014798;28;20230;-86
2021/05/01 03:22:31;;;;;;;22.90;20.50;;;9.20;95.90;;;;;;5014467;28;20199;-84
2021/05/01 03:24:57;;;;;;;24.58;21.60;;;9.10;95.90;;;;;;5019009;28;20219;-84
2021/05/01 03:27:24;;;;;;;22.52;20.13;;;9.20;96.30;;;;;;5017331;28;20195;-84
2021/05/01 03:29:50;;;;;;;23.60;21.08;;;9.30;96.00;;;;;;5019345;28;20235;-88
2021/05/01 03:32:16;;;;;;;23.13;20.73;;;9.50;95.90;;;;;;5012348;28;20206;-85
2021/05/01 03:34:43;;;;;;;22.88;20.48;;;9.60;95.20;;;;;;5007848;28;20689;-84
2021/05/01 03:37:09;;;;;;;23.27;20.60;;;9.60;95.10;;;;;;5014132;28;20196;-84
2021/05/01 03:39:36;;;;;;;23.90;21.30;;;9.70;95.00;;;;;;5007456;28;20218;-87
2021/05/01 03:42:03;;;;;;;22.77;20.38;;;9.50;95.00;;;;;;5017837;28;20210;-84
2021/05/01 03:44:30;;;;;;;24.15;21.52;;;9.40;95.40;;;;;;5023334;28;20241;-83
2021/05/01 03:46:56;;;;;;;25.50;22.48;;;9.30;96.00;;;;;;5007954;28;20223;-86
2021/05/01 03:49:23;;;;;;;24.30;21.67;;;9.20;96.10;;;;;;5020835;28;20234;-84
2021/05/01 03:51:49;;;;;;;24.30;21.70;;;9.20;96.40;;;;;;5012474;28;20191;-83
2021/05/01 03:54:16;;;;;;;27.75;24.75;;;9.40;96.00;;;;;;5025679;28;20697;-85
2021/05/01 03:56:44;;;;;;;27.83;24.27;;;9.40;96.00;;;;;;5017500;28;20345;-83
2021/05/01 03:59:10;;;;;;;27.65;24.27;;;9.30;96.00;;;;;;5016376;28;20585;-84
2021/05/01 04:01:36;;;;;;;29.10;25.20;;;9.30;96.00;;;;;;5011477;28;20206;-85
2021/05/01 04:04:03;;;;;;;30.17;25.52;;;9.20;95.90;;;;;;5011147;28;20231;-85
2021/05/01 04:06:29;;;;;;;28.67;24.33;;;9.10;95.90;;;;;;5014798;28;20211;-83
2021/05/01 04:08:56;;;;;;;28.05;24.63;;;9.20;96.00;;;;;;5014460;28;20227;-83
2021/05/01 04:11:22;;;;;;;28.05;24.63;;;9.20;95.90;;;;;;5015251;28;20235;-85
2021/05/01 04:13:50;;;;;;;27.35;24.45;;;9.20;95.90;;;;;;5015917;28;20235;-88
2021/05/01 04:16:17;;;;;;;29.00;24.88;;;9.20;95.90;;;;;;5016916;28;20199;-83
2021/05/01 04:18:45;;;;;;;30.02;26.75;;;9.10;95.90;;;;;;5025270;28;20239;-86
2021/05/01 04:21:11;;;;;;;29.17;25.17;;;9.10;95.90;;;;;;5019804;28;20211;-85
2021/05/01 04:23:37;;;;;;;31.88;27.27;;;9.00;95.90;;;;;;5018365;28;20596;-84
2021/05/01 04:26:04;;;;;;;33.35;26.98;;;9.00;95.90;;;;;;5021230;28;20218;-89
2021/05/01 04:28:31;;;;;;;30.90;26.27;;;8.90;95.90;;;;;;5017357;28;20231;-83
2021/05/01 04:30:59;;;;;;;30.63;25.48;;;9.00;95.90;;;;;;5025823;28;20217;-88
2021/05/01 04:33:25;;;;;;;30.98;26.23;;;9.10;95.90;;;;;;5015924;28;20755;-83
2021/05/01 04:35:52;;;;;;;30.73;27.15;;;9.20;95.90;;;;;;5017778;28;20645;-86
2021/05/01 04:38:19;;;;;;;32.20;28.00;;;9.20;95.90;;;;;;5015310;28;20245;-83
2021/05/01 04:40:46;;;;;;;31.45;27.45;;;9.20;96.00;;;;;;5014048;28;20204;-83
2021/05/01 04:43:13;;;;;;;34.63;29.35;;;9.20;96.00;;;;;;5015281;28;20226;-83
2021/05/01 04:45:41;;;;;;;34.03;28.75;;;9.10;95.90;;;;;;5015921;28;20225;-84
2021/05/01 04:48:09;;;;;;;34.38;29.10;;;9.00;95.90;;;;;;5016206;28;20305;-83
2021/05/01 04:50:35;;;;;;;33.80;28.52;;;9.00;95.90;;;;;;5005518;28;20285;-84
2021/05/01 04:53:02;;;;;;;33.10;29.17;;;9.10;96.10;;;;;;5010150;28;20199;-84
2021/05/01 04:55:28;;;;;;;32.05;27.45;;;9.20;95.90;;;;;;5015668;28;20771;-84
2021/05/01 04:57:55;;;;;;;33.40;28.45;;;9.30;95.70;;;;;;5003019;28;20208;-86
2021/05/01 05:00:23;;;;;;;32.00;27.92;;;9.30;95.50;;;;;;5014641;28;20230;-85
2021/05/01 05:02:50;;;;;;;32.45;28.02;;;9.40;95.40;;;;;;5016980;28;20207;-86
2021/05/01 05:05:19;;;;;;;32.80;28.02;;;9.50;95.10;;;;;;5007560;28;20721;-83
2021/05/01 05:07:45;;;;;;;32.60;28.08;;;9.50;94.80;;;;;;5013084;28;20211;-86
2021/05/01 05:10:14;;;;;;;32.33;26.27;;;9.60;94.50;;;;;;5008171;28;20212;-83
2021/05/01 05:12:41;;;;;;;30.48;27.17;;;9.70;94.00;;;;;;5014007;28;20651;-83
2021/05/01 05:15:08;;;;;;;31.45;27.83;;;9.70;93.70;;;;;;5012569;28;20227;-84
2021/05/01 05:17:34;;;;;;;33.78;28.27;;;9.70;93.60;;;;;;5012469;28;20229;-84
2021/05/01 05:20:03;;;;;;;32.22;27.77;;;9.70;93.80;;;;;;5006130;28;20235;-83
2021/05/01 05:22:30;;;;;;;31.80;27.35;;;9.70;94.00;;;;;;5017866;28;20206;-86
2021/05/01 05:24:57;;;;;;;30.65;26.85;;;9.60;94.30;;;;;;5008502;28;20223;-83
2021/05/01 05:27:23;;;;;;;32.10;27.83;;;9.70;93.90;;;;;;5009200;28;20580;-83
2021/05/01 05:29:51;;;;;;;33.03;28.73;;;9.70;93.70;;;;;;5010550;28;20245;-83
2021/05/01 05:32:18;;;;;;;31.45;27.50;;;9.70;93.90;;;;;;5010331;28;20710;-84
2021/05/01 05:34:44;;;;;;;31.08;27.02;;;9.80;93.70;;;;;;5006494;28;20234;-83
2021/05/01 05:37:11;;;;;;;29.67;25.98;;;9.90;93.40;;;;;;5014315;28;20211;-84
2021/05/01 05:39:38;;;;;;;31.88;27.90;;;9.90;93.10;;;;;;5018201;28;20234;-83
2021/05/01 05:42:06;;;;;;;30.20;26.25;;;9.70;92.40;;;;;;5015402;28;20214;-85
2021/05/01 05:44:33;;;;;;;30.70;27.02;;;9.70;93.40;;;;;;5019387;28;20234;-86
2021/05/01 05:46:59;;;;;;;28.80;25.70;;;9.90;92.80;;;;;;5009357;28;20261;-85
2021/05/01 05:49:26;;;;;;;30.60;26.85;;;10.20;92.20;;;;;;5011803;28;20224;-83
2021/05/01 05:51:52;;;;;;;30.55;25.88;;;10.60;91.20;;;;;;5019883;28;20199;-83
2021/05/01 05:54:19;;;;;;;28.27;24.95;;;11.00;90.50;;;;;;5017884;28;20691;-83
2021/05/01 05:56:46;;;;;;;32.38;25.33;;;11.30;89.40;;;;;;5021601;28;20666;-85
2021/05/01 05:59:13;;;;;;;29.90;26.15;;;11.50;86.80;;;;;;5007358;28;20300;-83
2021/05/01 06:01:43;;;;;;;27.80;24.80;;;11.30;86.00;;;;;;5018863;28;20236;-83
2021/05/01 06:04:16;;;;;;;30.48;25.90;;;11.00;87.60;;;;;;5017594;28;20236;-86
2021/05/01 06:06:49;;;;;;;31.05;26.63;;;10.60;90.00;;;;;;5012109;28;20199;-84
2021/05/01 06:09:16;;;;;;;29.58;26.38;;;10.70;90.40;;;;;;5017682;28;20226;-85
2021/05/01 06:11:42;;;;;;;28.50;25.17;;;10.60;90.40;;;;;;5016946;28;20282;-84
2021/05/01 06:14:15;;;;;;;29.25;25.95;;;10.60;90.40;;;;;;5012088;28;20234;-90
2021/05/01 06:16:41;;;;;;;27.83;24.70;;;10.50;90.70;;;;;;5010498;28;20210;-83
2021/05/01 06:19:10;;;;;;;29.35;26.17;;;10.70;90.40;;;;;;5008496;28;20234;-86
2021/05/01 06:21:37;;;;;;;28.65;25.27;;;10.60;90.40;;;;;;5010111;28;20199;-84
2021/05/01 06:24:04;;;;;;;27.67;24.67;;;10.50;90.40;;;;;;5022764;28;20285;-84
2021/05/01 06:26:31;;;;;;;28.67;23.92;;;10.50;90.40;;;;;;5013302;28;20202;-84
2021/05/01 06:28:58;;;;;;;28.15;25.10;;;10.80;90.50;;;;;;5010936;28;20282;-83
2021/05/01 06:31:26;;;;;;;28.08;24.58;;;10.80;90.50;;;;;;5006038;28;20219;-84
2021/05/01 06:33:52;;;;;;;27.33;24.45;;;10.90;90.50;;;;;;5006373;28;20226;-83
2021/05/01 06:36:20;;;;;;;28.38;25.27;;;11.00;88.60;;;;;;5014119;28;20207;-84
2021/05/01 06:38:47;;;;;;;28.17;25.13;;;11.10;89.20;;;;;;5002573;28;20227;-84
2021/05/01 06:41:17;;;;;;;29.15;25.58;;;11.10;88.50;;;;;;5009209;28;20200;-86
2021/05/01 06:44:02;;;;;;;31.60;23.88;;;11.10;89.80;;;;;;5007966;28;20235;-85
2021/05/01 06:46:35;;;;;;;27.98;25.08;;;11.30;90.00;;;;;;5009033;28;20203;-83
2021/05/01 06:49:05;;;;;;;25.85;23.13;;;11.30;89.30;;;;;;5006445;28;20923;-84
2021/05/01 06:51:38;;;;;;;26.83;23.10;;;11.70;87.20;;;;;;5001329;28;20210;-84
2021/05/01 06:54:07;;;;;;;28.70;24.55;;;12.00;83.90;;;;;;5004930;28;20234;-84
2021/05/01 06:56:35;;;;;;;27.95;24.95;;;12.00;83.10;;;;;;5009296;28;20203;-84
2021/05/01 06:59:03;;;;;;;26.73;23.90;;;11.90;82.80;;;;;;5001432;28;21640;-83
2021/05/01 07:01:31;;;;;;;26.50;23.33;;;11.80;84.50;;;;;;5008623;28;20213;-83
2021/05/01 07:04:01;;;;;;;24.30;21.77;;;11.90;84.00;;;;;;5009271;28;20227;-83
2021/05/01 07:06:43;;;;;;;24.65;22.05;;;12.10;83.30;;;;;;5012420;28;20196;-83
2021/05/01 07:09:10;;;;;;;23.13;20.65;;;12.50;81.00;;;;;;5017208;28;20218;-88
2021/05/01 07:11:42;;;;;;;24.75;20.45;;;12.30;79.50;;;;;;5017550;28;20198;-84
2021/05/01 07:14:10;;;;;;;25.35;21.58;;;12.50;78.60;;;;;;5019477;28;20257;-85
2021/05/01 07:16:41;;;;;;;23.73;21.23;;;12.60;79.40;;;;;;5015178;28;20207;-85
2021/05/01 07:19:11;;;;;;;23.30;20.88;;;12.90;77.70;;;;;;5005632;28;20290;-84
2021/05/01 07:21:38;;;;;;;23.90;21.33;;;13.00;75.90;;;;;;5007603;28;20203;-83
2021/05/01 07:24:10;;;;;;;21.98;19.60;;;13.20;76.00;;;;;;5009254;28;20235;-84
2021/05/01 07:26:36;;;;;;;26.20;22.73;;;13.10;75.90;;;;;;5005922;28;20207;-84
2021/05/01 07:29:04;;;;;;;29.20;22.70;;;13.60;76.20;;;;;;5010012;28;20239;-84
2021/05/01 07:31:32;;;;;;;32.38;24.95;;;13.80;75.80;;;;;;5008618;28;20215;-84
2021/05/01 07:34:02;;;;;;;21.73;19.38;;;14.00;75.80;;;;;;5000191;28;20233;-86
2021/05/01 07:36:33;;;;;;;22.25;19.85;;;14.50;71.50;;;;;;5005422;28;20262;-84
2021/05/01 07:39:01;;;;;;;26.73;23.83;;;14.50;65.50;;;;;;5005772;28;20223;-84
2021/05/01 07:41:29;;;;;;;19.67;17.67;;;14.40;66.50;;;;;;5007502;28;20199;-85
2021/05/01 07:44:00;;;;;;;19.02;17.13;;;14.40;67.20;;;;;;5007408;28;20270;-84
2021/05/01 07:46:29;;;;;;;20.15;17.98;;;14.60;63.50;;;;;;5004615;28;20227;-85
2021/05/01 07:48:55;;;;;;;18.63;16.80;;;14.60;62.60;;;;;;5008806;28;20235;-90
2021/05/01 07:51:23;;;;;;;18.90;16.98;;;14.80;60.90;;;;;;5005150;28;20207;-86
2021/05/01 07:53:50;;;;;;;18.20;16.40;;;15.00;60.80;;;;;;5016198;28;20231;-87
2021/05/01 07:56:16;;;;;;;18.65;16.85;;;15.00;59.70;;;;;;5023590;28;20674;-86
2021/05/01 07:58:43;;;;;;;24.30;19.17;;;15.30;58.80;;;;;;5009844;28;20228;-84
2021/05/01 08:01:09;;;;;;;23.55;17.83;;;15.50;58.40;;;;;;5013251;28;20206;-85
2021/05/01 08:03:35;;;;;;;16.20;14.50;;;15.60;57.60;;;;;;5014575;28;20215;-85
2021/05/01 08:06:02;;;;;;;17.20;15.50;;;15.70;53.80;;;;;;5009493;28;20210;-85
2021/05/01 08:08:29;;;;;;;21.83;15.90;;;15.50;55.40;;;;;;5011557;28;20235;-89
2021/05/01 08:10:56;;;;;;;21.88;14.82;;;15.20;57.10;;;;;;5009526;28;20211;-85
2021/05/01 08:13:23;;;;;;;16.30;14.70;;;15.50;58.00;;;;;;5014870;28;20238;-86
2021/05/01 08:15:50;;;;;;;15.68;14.18;;;16.10;54.80;;;;;;5012478;28;20229;-86
2021/05/01 08:18:21;;;;;;;15.88;14.18;;;15.80;52.90;;;;;;4992734;28;20226;-86
2021/05/01 08:20:49;;;;;;;15.45;13.93;;;15.60;54.60;;;;;;5016986;28;20203;-86
2021/05/01 08:23:16;;;;;;;15.98;14.38;;;15.50;55.70;;;;;;5017452;28;20243;-87
2021/05/01 08:25:44;;;;;;;15.85;14.35;;;15.50;56.10;;;;;;5015066;28;20660;-86
2021/05/01 08:28:11;;;;;;;17.95;16.13;;;15.50;55.70;;;;;;5010454;28;20242;-88
2021/05/01 08:30:38;;;;;;;18.33;13.70;;;15.30;57.30;;;;;;5008146;28;20199;-86
2021/05/01 08:33:05;;;;;;;16.15;14.65;;;15.60;58.00;;;;;;4995269;28;20195;-87
2021/05/01 08:35:31;;;;;;;14.77;13.35;;;15.70;54.80;;;;;;5016051;28;21110;-85
2021/05/01 08:38:00;;;;;;;16.38;14.25;;;15.50;56.70;;;;;;5012392;28;20193;-89
2021/05/01 08:40:28;;;;;;;16.90;15.07;;;15.50;56.50;;;;;;5007570;28;20205;-88
2021/05/01 08:42:55;;;;;;;16.70;15.10;;;15.40;56.90;;;;;;5010793;28;20199;-84
2021/05/01 08:45:29;;;;;;;15.00;13.50;;;15.40;57.20;;;;;;5020907;28;20210;-87
2021/05/01 08:47:56;;;;;;;16.35;14.73;;;15.50;56.00;;;;;;5006845;28;20230;-87
2021/05/01 08:50:35;;;;;;;15.70;14.20;;;15.30;56.30;;;;;;5013288;28;20257;-86
2021/05/01 08:53:02;;;;;;;16.58;14.98;;;15.00;58.10;;;;;;5004779;28;20238;-87
2021/05/01 08:55:34;;;;;;;15.45;12.75;;;14.90;59.50;;;;;;5010088;28;20319;-90
2021/05/01 08:58:06;;;;;;;16.40;14.63;;;14.90;61.40;;;;;;5005104;28;20212;-87
2021/05/01 09:00:32;;;;;;;16.25;14.55;;;15.00;59.20;;;;;;5013368;28;20203;-86
2021/05/01 09:03:03;;;;;;;16.98;15.18;;;14.80;59.50;;;;;;5007594;28;20261;-88
2021/05/01 09:05:30;;;;;;;17.35;15.65;;;14.70;61.90;;;;;;5012819;28;20267;-89
2021/05/01 09:07:57;;;;;;;15.88;14.23;;;14.90;60.00;;;;;;4995254;28;20255;-90
2021/05/01 09:10:24;;;;;;;16.33;14.35;;;14.80;60.90;;;;;;5005572;28;20204;-86
2021/05/01 09:12:51;;;;;;;15.75;14.25;;;14.40;64.30;;;;;;5015280;28;20212;-87
2021/05/01 09:15:23;;;;;;;14.43;12.93;;;14.10;65.30;;;;;;5013658;28;20227;-86
2021/05/01 09:17:59;;;;;;;16.75;13.05;;;13.80;66.00;;;;;;5018455;28;20200;-88
2021/05/01 09:20:35;;;;;;;15.65;14.05;;;13.90;70.40;;;;;;5016652;28;20219;-91
2021/05/01 09:23:05;;;;;;;17.25;14.18;;;14.10;66.90;;;;;;5018242;28;20206;-88
2021/05/01 09:25:33;;;;;;;15.68;14.07;;;14.10;65.70;;;;;;5020423;28;20195;-90
2021/05/01 09:31:06;;;;;;;15.48;13.88;;;13.80;67.80;;;;;;5009937;28;20208;-89
2021/05/01 09:33:35;;;;;;;16.40;14.70;;;13.70;69.80;;;;;;5000702;28;20278;-92
2021/05/01 09:36:05;;;;;;;16.80;15.02;;;13.50;70.70;;;;;;5009438;28;20921;-90
2021/05/01 09:38:34;;;;;;;15.90;14.25;;;13.20;72.70;;;;;;5022268;28;20866;-87
2021/05/01 09:41:08;;;;;;;16.67;14.80;;;13.00;74.90;;;;;;4998830;28;20203;-87
2021/05/01 09:43:35;;;;;;;17.85;16.05;;;12.90;75.80;;;;;;5019823;28;20228;-87
2021/05/01 09:46:16;;;;;;;17.13;15.07;;;13.00;75.80;;;;;;5016081;28;20209;-87
2021/05/01 09:48:43;;;;;;;16.75;15.05;;;13.20;76.00;;;;;;5008299;28;20222;-86
2021/05/01 09:51:10;;;;;;;18.40;15.65;;;13.30;74.80;;;;;;5027725;28;20199;-87
2021/05/01 09:53:39;;;;;;;18.13;16.33;;;13.30;75.20;;;;;;5026632;28;20226;-85
2021/05/01 09:56:12;;;;;;;17.80;15.90;;;13.10;75.90;;;;;;5016038;28;20220;-88
2021/05/01 09:58:52;;;;;;;18.55;16.65;;;13.10;75.90;;;;;;5014417;28;20219;-89
2021/05/01 10:01:20;;;;;;;19.30;16.90;;;12.90;77.20;;;;;;5022790;28;20195;-86
2021/05/01 10:03:46;;;;;;;17.45;15.65;;;13.00;75.90;;;;;;5014153;28;20581;-86
2021/05/01 10:06:15;;;;;;;18.00;14.95;;;12.90;75.80;;;;;;4998161;28;20199;-90
2021/05/01 10:08:42;;;;;;;18.60;16.35;;;13.00;75.90;;;;;;5019866;28;20219;-89
2021/05/01 10:11:10;;;;;;;18.17;16.27;;;13.00;75.90;;;;;;5005688;28;20214;-89
2021/05/01 10:13:47;;;;;;;16.77;15.07;;;13.10;75.90;;;;;;5031972;28;20231;-89
2021/05/01 10:19:44;;;;;;;18.38;16.48;;;13.60;74.40;;;;;;5030922;22;20232;-85
2021/05/01 10:22:31;;;;;;;18.05;16.00;;;13.70;73.20;;;;;;4996594;28;20628;-87
2021/05/01 10:25:01;;;;;;;18.17;16.38;;;13.70;73.50;;;;;;5002356;28;20231;-86
2021/05/01 10:27:29;;;;;;;16.92;15.13;;;13.60;74.70;;;;;;5007142;28;20235;-88
2021/05/01 10:30:11;;;;;;;17.58;15.75;;;13.60;74.70;;;;;;4999960;28;20232;-88
2021/05/01 10:32:43;;;;;;;16.92;15.23;;;13.50;75.20;;;;;;4995203;28;20208;-86
2021/05/01 10:35:13;;;;;;;16.40;14.80;;;13.60;74.60;;;;;;5001362;28;20373;-88
2021/05/01 10:37:48;;;;;;;17.13;15.27;;;13.40;76.20;;;;;;5005784;28;20200;-87
2021/05/01 10:40:17;;;;;;;16.45;14.75;;;13.30;76.10;;;;;;5000988;28;20270;-86
2021/05/01 10:42:43;;;;;;;17.23;15.43;;;13.30;76.10;;;;;;4999604;28;20351;-86
2021/05/01 10:45:12;;;;;;;17.40;15.50;;;13.30;76.00;;;;;;4990819;28;20235;-91
2021/05/01 10:47:39;;;;;;;16.73;15.02;;;13.20;76.00;;;;;;4979308;28;20565;-87
2021/05/01 10:50:21;;;;;;;18.38;15.77;;;13.10;75.90;;;;;;4999699;28;20230;-88
2021/05/01 10:52:49;;;;;;;17.30;15.30;;;13.00;75.90;;;;;;4998001;28;20204;-88
2021/05/01 10:55:16;;;;;;;17.65;15.85;;;13.20;76.00;;;;;;5009292;28;20224;-88
2021/05/01 10:57:42;;;;;;;16.88;15.13;;;13.30;76.10;;;;;;4998078;28;20204;-89
2021/05/01 11:00:14;;;;;;;17.38;15.57;;;13.40;76.10;;;;;;5006196;28;20219;-89
2021/05/01 11:02:42;;;;;;;18.00;16.02;;;13.50;76.20;;;;;;5002227;28;20208;-88
2021/05/01 11:05:29;;;;;;;17.48;15.68;;;13.60;73.80;;;;;;5005918;28;20236;-89
2021/05/01 11:08:04;;;;;;;18.77;16.65;;;13.60;75.50;;;;;;5000348;28;20276;-89
2021/05/01 11:10:37;;;;;;;21.88;19.55;;;13.60;76.00;;;;;;4998020;28;20199;-88
2021/05/01 11:13:06;;;;;;;16.42;14.82;;;13.70;76.00;;;;;;5001834;28;20211;-89
2021/05/01 11:15:45;;;;;;;17.88;16.08;;;13.70;74.10;;;;;;5001446;28;20254;-89
2021/05/01 11:18:19;;;;;;;20.02;15.93;;;13.50;75.50;;;;;;4992871;28;20219;-88
2021/05/01 11:20:47;;;;;;;17.00;15.27;;;13.50;76.20;;;;;;5000531;28;20203;-87
2021/05/01 11:23:15;;;;;;;17.27;15.43;;;13.60;76.30;;;;;;4996230;28;20605;-87
2021/05/01 11:25:42;;;;;;;15.18;13.57;;;13.80;75.20;;;;;;5000181;28;20196;-86
2021/05/01 11:28:13;;;;;;;27.20;21.92;;;14.00;70.40;;;;;;4995007;28;20256;-88
2021/05/01 11:30:42;;;;;;;14.52;13.02;;;14.50;70.40;;;;;;4999914;28;20201;-87
2021/05/01 11:33:09;;;;;;;15.00;13.50;;;14.60;66.00;;;;;;5002188;28;20322;-88
2021/05/01 11:36:09;;;;;;;13.98;12.60;;;14.50;65.80;;;;;;4990430;28;20283;-86
2021/05/01 11:38:39;;;;;;;24.02;17.88;;;14.00;68.70;;;;;;4996305;28;20253;-88
2021/05/01 11:41:10;;;;;;;14.45;12.95;;;14.10;73.50;;;;;;4993486;28;20206;-87
2021/05/01 11:43:39;;;;;;;14.73;13.15;;;14.00;70.70;;;;;;4996167;28;20216;-87
2021/05/01 11:46:18;;;;;;;14.95;13.43;;;14.00;69.00;;;;;;4994013;28;20296;-86
2021/05/01 11:48:50;;;;;;;15.13;13.45;;;14.10;69.90;;;;;;4996974;28;20275;-87
2021/05/01 11:51:25;;;;;;;14.75;13.23;;;14.10;69.00;;;;;;4998091;28;20200;-87
2021/05/01 11:53:58;;;;;;;14.07;12.68;;;14.20;69.20;;;;;;4994177;28;20269;-87
2021/05/01 11:56:34;;;;;;;14.80;13.30;;;14.30;68.10;;;;;;4994241;28;20283;-87
2021/05/01 11:59:10;;;;;;;14.95;13.27;;;14.60;67.40;;;;;;4992916;28;20712;-87
2021/05/01 12:02:01;;;;;;;14.57;13.07;;;14.70;66.20;;;;;;4992460;28;20208;-85
2021/05/01 12:04:53;;;;;;;14.10;12.70;;;14.70;65.00;;;;;;4989982;28;20228;-85
2021/05/01 12:07:30;;;;;;;14.93;13.43;;;14.70;65.20;;;;;;4994970;28;20726;-87
2021/05/01 12:10:03;;;;;;;14.23;12.73;;;14.50;66.00;;;;;;4992631;28;20227;-85
2021/05/01 12:12:32;;;;;;;14.25;12.85;;;14.30;66.00;;;;;;4998221;28;20208;-86
2021/05/01 12:15:04;;;;;;;14.27;12.88;;;14.20;67.30;;;;;;4994729;28;20221;-90
2021/05/01 12:17:31;;;;;;;19.08;14.10;;;14.10;68.70;;;;;;5000022;28;20277;-88
2021/05/01 12:20:10;;;;;;;13.85;12.48;;;13.90;70.40;;;;;;4979449;28;20228;-86
2021/05/01 12:22:45;;;;;;;13.80;12.30;;;13.90;70.90;;;;;;4989769;28;20676;-88
2021/05/01 12:25:40;;;;;;;13.65;12.25;;;13.90;70.50;;;;;;5002432;28;20219;-87
2021/05/01 12:28:08;;;;;;;13.93;12.45;;;13.80;71.00;;;;;;4939318;28;20278;-86
2021/05/01 12:31:01;;;;;;;12.27;10.88;;;13.70;70.70;;;;;;4996765;28;20218;-88
2021/05/01 12:34:17;;;;;;;14.77;13.27;;;13.60;71.50;;;;;;4990850;28;20228;-88
2021/05/01 12:36:48;;;;;;;13.77;12.25;;;13.70;71.20;;;;;;4973575;28;20231;-88
2021/05/01 12:39:18;;;;;;;13.43;12.07;;;13.70;71.50;;;;;;5003280;28;20258;-89
2021/05/01 12:41:46;;;;;;;14.30;12.90;;;13.80;70.30;;;;;;4984033;28;20573;-88
2021/05/01 12:44:34;;;;;;;13.30;11.90;;;13.80;70.30;;;;;;5007073;28;20227;-86
2021/05/01 12:47:53;;;;;;;13.45;12.20;;;13.80;71.60;;;;;;5003100;28;20234;-88